Time;durP1;ratioP1;P1;durP2;ratioP2;P2;SDS_P1;SDS_P2;PMS_P1;PMS_P2;Temp;Humidity;BMP_temperature;BMP_pressure;BME280_temperature;BME280_humidity;BME280_pressure;Samples;Min_cycle;Max_cycle;Signal;HPM_P1;HPM_P2
2022/03/17 00:00:35;;;;;;;23.95;14.73;;;9.90;99.90;;;;;;6266721;22;20346;-57
2022/03/17 00:03:00;;;;;;;22.83;14.65;;;9.90;99.90;;;;;;6266390;22;20020;-57
2022/03/17 00:05:26;;;;;;;23.05;14.15;;;9.90;99.90;;;;;;6267006;22;20061;-57
2022/03/17 00:07:52;;;;;;;19.52;13.32;;;9.90;99.90;;;;;;6266881;22;20034;-56
2022/03/17 00:10:18;;;;;;;20.65;14.60;;;10.40;99.90;;;;;;6266730;22;20027;-57
2022/03/17 00:12:45;;;;;;;20.27;13.90;;;9.90;99.90;;;;;;6266471;22;20019;-57
2022/03/17 00:15:11;;;;;;;21.65;14.27;;;9.90;99.90;;;;;;6266590;22;20020;-57
2022/03/17 00:17:37;;;;;;;21.42;13.85;;;9.80;99.90;;;;;;6266492;22;20070;-57
2022/03/17 00:20:10;;;;;;;23.58;15.10;;;9.90;99.90;;;;;;6266954;22;20342;-59
2022/03/17 00:22:36;;;;;;;24.90;14.50;;;9.80;99.90;;;;;;6266730;22;20098;-56
2022/03/17 00:25:04;;;;;;;23.00;14.00;;;9.80;99.90;;;;;;6266865;22;20707;-58
2022/03/17 00:27:31;;;;;;;23.15;14.00;;;9.80;99.90;;;;;;6266552;22;20031;-66
2022/03/17 00:29:57;;;;;;;26.15;16.02;;;9.80;99.90;;;;;;6266869;22;20094;-60
2022/03/17 00:32:23;;;;;;;22.70;14.82;;;10.00;99.90;;;;;;6266957;22;20055;-56
2022/03/17 00:37:33;;;;;;;21.85;14.07;;;9.70;99.90;;;;;;6267993;22;20102;-57
2022/03/17 00:39:59;;;;;;;20.40;14.23;;;9.70;99.90;;;;;;6268502;22;20059;-57
2022/03/17 00:42:27;;;;;;;24.38;14.68;;;9.70;99.90;;;;;;6269190;22;20022;-57
2022/03/17 00:44:54;;;;;;;23.35;13.98;;;9.70;99.90;;;;;;6269220;22;20081;-57
2022/03/17 00:47:20;;;;;;;21.27;13.88;;;9.70;99.90;;;;;;6240743;22;20024;-57
2022/03/17 00:49:47;;;;;;;25.77;15.27;;;9.70;99.90;;;;;;6268555;22;20091;-58
2022/03/17 00:52:14;;;;;;;25.88;14.32;;;9.70;99.90;;;;;;6268109;22;20035;-57
2022/03/17 00:54:41;;;;;;;25.33;14.80;;;9.90;99.90;;;;;;6268155;22;20023;-57
2022/03/17 00:57:08;;;;;;;21.05;13.82;;;9.60;99.90;;;;;;6268287;22;20129;-57
2022/03/17 00:59:36;;;;;;;30.60;16.15;;;9.60;99.90;;;;;;6268749;22;20016;-57
2022/03/17 01:02:04;;;;;;;24.98;15.23;;;9.60;99.90;;;;;;6268985;22;20026;-57
2022/03/17 01:04:29;;;;;;;21.02;13.02;;;9.60;99.90;;;;;;6268896;22;20015;-57
2022/03/17 01:06:55;;;;;;;23.45;14.85;;;9.60;99.90;;;;;;6268872;22;20030;-57
2022/03/17 01:09:21;;;;;;;21.52;13.95;;;9.60;99.90;;;;;;6268165;22;20020;-57
2022/03/17 01:11:46;;;;;;;26.05;15.05;;;9.60;99.90;;;;;;6268419;22;20027;-57
2022/03/17 01:14:15;;;;;;;24.98;14.85;;;9.60;99.90;;;;;;6268727;22;20019;-57
2022/03/17 01:16:42;;;;;;;23.98;15.00;;;9.60;99.90;;;;;;6268584;22;20020;-57
2022/03/17 01:19:08;;;;;;;23.25;15.63;;;9.60;99.90;;;;;;6240802;22;20053;-59
2022/03/17 01:21:34;;;;;;;22.67;14.85;;;9.70;99.90;;;;;;6268023;22;20023;-62
2022/03/17 01:24:00;;;;;;;21.95;15.25;;;9.60;99.90;;;;;;6268877;22;20087;-57
2022/03/17 01:26:26;;;;;;;24.83;15.60;;;9.60;99.90;;;;;;6267545;22;20061;-65
2022/03/17 01:28:52;;;;;;;24.70;15.40;;;9.60;99.90;;;;;;6268103;22;20129;-60
2022/03/17 01:31:22;;;;;;;24.90;15.02;;;9.60;99.90;;;;;;6268368;22;20037;-59
2022/03/17 01:33:47;;;;;;;26.08;15.75;;;9.60;99.90;;;;;;6267641;22;20016;-62
2022/03/17 01:36:13;;;;;;;24.27;15.00;;;9.60;99.90;;;;;;6268693;22;20091;-60
2022/03/17 01:38:38;;;;;;;23.20;14.98;;;9.60;99.90;;;;;;6267978;22;20659;-57
2022/03/17 01:41:04;;;;;;;26.35;15.15;;;9.60;99.90;;;;;;6266750;22;20024;-57
2022/03/17 01:43:30;;;;;;;21.80;14.88;;;9.60;99.90;;;;;;6241129;22;20051;-57
2022/03/17 01:45:55;;;;;;;28.42;16.55;;;9.50;99.90;;;;;;6267886;22;20090;-58
2022/03/17 01:48:21;;;;;;;20.85;13.38;;;9.50;99.90;;;;;;6268250;22;20015;-57
2022/03/17 01:50:49;;;;;;;23.05;15.95;;;9.50;99.90;;;;;;6268607;22;20482;-59
2022/03/17 01:53:14;;;;;;;24.17;15.43;;;9.50;99.90;;;;;;6268577;22;20043;-58
2022/03/17 01:55:40;;;;;;;31.10;16.95;;;8.90;99.90;;;;;;6268286;22;20028;-62
2022/03/17 01:58:07;;;;;;;21.05;14.43;;;9.50;99.90;;;;;;6268409;22;20031;-59
2022/03/17 02:00:33;;;;;;;25.08;14.60;;;9.60;99.90;;;;;;6240328;22;20094;-60
2022/03/17 02:02:59;;;;;;;24.85;15.70;;;9.50;99.90;;;;;;6268001;22;20023;-63
2022/03/17 02:05:25;;;;;;;25.92;15.10;;;9.90;99.90;;;;;;6240862;22;20024;-57
2022/03/17 02:07:51;;;;;;;24.85;15.30;;;9.50;99.90;;;;;;6268383;22;20012;-68
2022/03/17 02:10:18;;;;;;;25.40;15.60;;;9.50;99.90;;;;;;6268329;22;20090;-59
2022/03/17 02:15:29;;;;;;;23.83;16.05;;;9.50;99.90;;;;;;6268269;22;20068;-61
2022/03/17 02:17:55;;;;;;;22.95;15.98;;;9.50;99.90;;;;;;6267895;22;20102;-61
2022/03/17 02:20:23;;;;;;;23.48;14.13;;;9.60;99.90;;;;;;6268394;22;20022;-60
2022/03/17 02:22:50;;;;;;;25.98;17.15;;;9.60;99.90;;;;;;6268104;22;20043;-57
2022/03/17 02:25:36;;;;;;;21.10;14.70;;;9.50;99.90;;;;;;6240542;22;20457;-67
2022/03/17 02:28:04;;;;;;;26.08;16.17;;;9.60;99.90;;;;;;6268196;22;20016;-67
2022/03/17 02:30:33;;;;;;;27.38;16.00;;;9.60;99.90;;;;;;6268779;22;20111;-68
2022/03/17 02:33:02;;;;;;;28.65;16.48;;;9.60;99.90;;;;;;6267731;22;20020;-68
2022/03/17 02:35:28;;;;;;;21.17;14.02;;;9.60;99.90;;;;;;6267971;22;20015;-70
2022/03/17 02:37:55;;;;;;;26.10;16.00;;;9.60;99.90;;;;;;6266874;22;20011;-69
2022/03/17 02:40:21;;;;;;;27.70;16.38;;;9.60;99.90;;;;;;6267645;22;20097;-73
2022/03/17 02:42:47;;;;;;;28.08;15.73;;;9.60;99.90;;;;;;6266785;22;20016;-59
2022/03/17 02:45:13;;;;;;;25.55;13.50;;;9.60;99.90;;;;;;6267445;22;20023;-56
2022/03/17 02:47:40;;;;;;;24.83;15.63;;;9.60;99.90;;;;;;6266971;22;20350;-57
2022/03/17 02:50:10;;;;;;;22.10;15.27;;;9.60;99.90;;;;;;6267231;22;20020;-57
2022/03/17 02:52:36;;;;;;;23.02;13.13;;;9.60;99.90;;;;;;6267453;22;20417;-57
2022/03/17 02:55:03;;;;;;;25.83;15.50;;;9.60;99.90;;;;;;6267730;22;20019;-57
2022/03/17 02:57:29;;;;;;;26.80;15.82;;;9.60;99.90;;;;;;6265240;22;20465;-57
2022/03/17 02:59:55;;;;;;;24.13;14.60;;;9.60;99.90;;;;;;6266994;22;20047;-57
2022/03/17 03:02:22;;;;;;;24.15;15.73;;;9.60;99.90;;;;;;6267959;22;20066;-57
2022/03/17 03:04:48;;;;;;;23.23;15.40;;;9.70;99.90;;;;;;6268132;22;20043;-57
2022/03/17 03:07:14;;;;;;;24.50;15.02;;;9.70;99.90;;;;;;6266912;22;20098;-57
2022/03/17 03:09:40;;;;;;;24.70;15.15;;;9.80;99.90;;;;;;6267351;22;20047;-57
2022/03/17 03:12:07;;;;;;;25.25;16.70;;;9.80;99.90;;;;;;6267060;22;20019;-57
2022/03/17 03:14:33;;;;;;;25.75;15.15;;;9.70;99.90;;;;;;6267158;22;20012;-71
2022/03/17 03:16:59;;;;;;;24.17;15.43;;;9.70;99.90;;;;;;6268044;22;20026;-56
2022/03/17 03:19:25;;;;;;;23.13;15.15;;;9.80;99.90;;;;;;6263139;22;20019;-67
2022/03/17 03:21:50;;;;;;;22.25;14.57;;;9.80;99.90;;;;;;6266882;22;20019;-71
2022/03/17 03:24:16;;;;;;;26.25;14.73;;;9.80;99.90;;;;;;6266501;22;20015;-61
2022/03/17 03:26:43;;;;;;;25.65;15.50;;;9.90;99.90;;;;;;6266874;22;20024;-63
2022/03/17 03:29:23;;;;;;;27.25;16.27;;;9.80;99.90;;;;;;6266154;22;20020;-67
2022/03/17 03:32:09;;;;;;;25.35;16.40;;;9.90;99.90;;;;;;6267254;22;20073;-61
2022/03/17 03:34:34;;;;;;;25.30;15.13;;;10.00;99.90;;;;;;6265514;22;20137;-61
2022/03/17 03:39:45;;;;;;;26.75;16.67;;;9.90;99.90;;;;;;6267028;22;20366;-59
2022/03/17 03:42:11;;;;;;;24.33;15.50;;;9.90;99.90;;;;;;6267461;22;20112;-62
2022/03/17 03:44:38;;;;;;;25.17;16.92;;;9.90;99.90;;;;;;6265443;22;20022;-59
2022/03/17 03:47:05;;;;;;;21.92;16.08;;;9.90;99.90;;;;;;6267347;22;20095;-58
2022/03/17 03:49:31;;;;;;;24.13;15.57;;;9.90;99.90;;;;;;6266024;22;20517;-57
2022/03/17 03:51:56;;;;;;;25.85;15.43;;;9.90;99.90;;;;;;6266953;22;20082;-58
2022/03/17 03:54:22;;;;;;;23.20;17.02;;;8.80;99.90;;;;;;6266233;22;20116;-61
2022/03/17 03:56:56;;;;;;;21.48;15.32;;;9.90;99.90;;;;;;6239823;22;20073;-66
2022/03/17 03:59:26;;;;;;;23.15;14.93;;;10.40;99.90;;;;;;6266709;22;20020;-64
2022/03/17 04:02:04;;;;;;;22.48;14.38;;;9.90;99.90;;;;;;6239304;22;20034;-63
2022/03/17 04:04:30;;;;;;;23.30;15.27;;;9.90;99.90;;;;;;6266339;22;20026;-57
2022/03/17 04:07:02;;;;;;;25.02;15.48;;;9.90;99.90;;;;;;6265985;22;20020;-57
2022/03/17 04:09:30;;;;;;;22.42;15.07;;;9.90;99.90;;;;;;6266444;22;20019;-67
2022/03/17 04:11:56;;;;;;;26.35;16.38;;;9.90;99.90;;;;;;6268257;22;20087;-63
2022/03/17 04:14:22;;;;;;;26.20;17.02;;;8.40;99.90;;;;;;6268700;22;20066;-57
2022/03/17 04:16:49;;;;;;;30.80;16.25;;;9.90;99.90;;;;;;6268577;22;20450;-57
2022/03/17 04:19:17;;;;;;;25.65;16.63;;;9.90;99.90;;;;;;6268434;22;20016;-57
2022/03/17 04:21:45;;;;;;;23.13;16.08;;;10.00;99.90;;;;;;6241251;22;20023;-58
2022/03/17 04:24:11;;;;;;;22.30;15.98;;;9.90;99.90;;;;;;6215004;22;20023;-57
2022/03/17 04:26:37;;;;;;;24.15;15.57;;;10.00;99.90;;;;;;6241685;22;20094;-57
2022/03/17 04:29:03;;;;;;;22.92;15.57;;;10.00;99.90;;;;;;6268364;22;20027;-57
2022/03/17 04:31:29;;;;;;;22.88;15.85;;;10.50;99.90;;;;;;6241564;22;20023;-58
2022/03/17 04:33:55;;;;;;;21.80;14.70;;;10.00;99.90;;;;;;6268130;22;20047;-71
2022/03/17 04:36:21;;;;;;;25.65;16.67;;;10.20;99.90;;;;;;6268559;22;20020;-56
2022/03/17 04:38:48;;;;;;;23.38;15.80;;;10.00;99.90;;;;;;6240893;22;20015;-66
2022/03/17 04:41:14;;;;;;;23.63;15.45;;;10.00;99.90;;;;;;6268799;22;20094;-57
2022/03/17 04:43:40;;;;;;;31.50;20.30;;;9.90;99.90;;;;;;6268432;22;20384;-56
2022/03/17 04:46:09;;;;;;;24.58;17.20;;;9.90;99.90;;;;;;6241665;22;20501;-56
2022/03/17 04:48:36;;;;;;;24.77;17.90;;;9.90;99.90;;;;;;6240950;22;20019;-58
2022/03/17 04:51:02;;;;;;;30.25;18.10;;;9.90;99.90;;;;;;6268046;22;20024;-56
2022/03/17 04:53:29;;;;;;;29.52;19.13;;;9.90;99.90;;;;;;6268266;22;20070;-67
2022/03/17 04:56:19;;;;;;;30.42;19.52;;;9.80;99.90;;;;;;6268679;22;20055;-61
2022/03/17 04:58:45;;;;;;;26.10;17.10;;;9.80;99.90;;;;;;6268076;22;20457;-56
2022/03/17 05:01:12;;;;;;;28.10;18.95;;;9.80;99.90;;;;;;6268494;22;20508;-59
2022/03/17 05:03:39;;;;;;;34.47;19.60;;;9.80;99.90;;;;;;6268669;22;20020;-56
2022/03/17 05:06:05;;;;;;;28.85;20.65;;;9.80;99.90;;;;;;6268552;22;20375;-56
2022/03/17 05:08:34;;;;;;;28.17;19.63;;;10.00;99.90;;;;;;6268909;22;20092;-56
2022/03/17 05:11:00;;;;;;;31.50;21.17;;;9.70;99.90;;;;;;6268518;22;20378;-59
2022/03/17 05:13:26;;;;;;;30.92;20.77;;;9.80;99.90;;;;;;6268508;22;20023;-59
2022/03/17 05:15:52;;;;;;;35.80;21.60;;;9.70;99.90;;;;;;6268321;22;20342;-59
2022/03/17 05:18:19;;;;;;;28.10;18.88;;;9.70;99.90;;;;;;6267737;22;20335;-59
2022/03/17 05:20:45;;;;;;;30.73;22.58;;;9.70;99.90;;;;;;6268213;22;20026;-57
2022/03/17 05:23:13;;;;;;;34.65;22.75;;;9.90;99.90;;;;;;6267438;22;20016;-57
2022/03/17 05:25:42;;;;;;;36.63;23.40;;;9.60;99.90;;;;;;6268555;22;20065;-57
2022/03/17 05:28:09;;;;;;;37.08;25.10;;;9.60;99.90;;;;;;6268480;22;20509;-57
2022/03/17 05:30:36;;;;;;;35.00;22.00;;;9.60;99.90;;;;;;6268990;22;20020;-57
2022/03/17 05:33:02;;;;;;;31.98;23.67;;;9.60;99.90;;;;;;6269039;22;20015;-58
2022/03/17 05:35:28;;;;;;;37.08;23.48;;;9.60;99.90;;;;;;6241489;22;20029;-60
2022/03/17 05:37:54;;;;;;;34.45;22.33;;;9.60;99.90;;;;;;6268258;22;20431;-58
2022/03/17 05:40:21;;;;;;;33.05;21.50;;;9.60;99.90;;;;;;6237597;22;20030;-59
2022/03/17 05:42:49;;;;;;;32.08;21.50;;;9.60;99.90;;;;;;6267723;22;20575;-58
2022/03/17 05:45:16;;;;;;;20.33;13.68;;;9.50;99.90;;;;;;6268055;22;20019;-59
2022/03/17 05:47:44;;;;;;;15.75;10.32;;;9.50;99.90;;;;;;6267708;22;20038;-56
2022/03/17 05:50:12;;;;;;;8.77;5.82;;;9.30;99.90;;;;;;6267635;22;20015;-59
2022/03/17 05:52:39;;;;;;;10.15;6.07;;;9.00;99.90;;;;;;6267405;22;20031;-56
2022/03/17 05:55:12;;;;;;;7.25;5.05;;;9.00;99.90;;;;;;6267752;22;20016;-56
2022/03/17 05:57:42;;;;;;;5.10;4.10;;;9.00;99.90;;;;;;6267197;22;20027;-56
2022/03/17 06:00:11;;;;;;;5.43;4.75;;;9.20;99.90;;;;;;6268447;22;20026;-56
2022/03/17 06:02:37;;;;;;;5.03;4.25;;;8.70;99.90;;;;;;6240016;22;20083;-56
2022/03/17 06:05:05;;;;;;;5.05;4.43;;;8.60;99.90;;;;;;6266906;22;20019;-58
2022/03/17 06:07:42;;;;;;;5.75;4.35;;;8.50;99.90;;;;;;6267459;22;20334;-57
2022/03/17 06:10:10;;;;;;;5.57;4.25;;;8.50;99.90;;;;;;6267016;22;20507;-58
2022/03/17 06:12:36;;;;;;;7.25;4.65;;;8.40;99.90;;;;;;6267736;22;20034;-59
2022/03/17 06:15:02;;;;;;;7.53;5.78;;;8.40;99.90;;;;;;6240037;22;20020;-60
2022/03/17 06:17:45;;;;;;;9.45;6.15;;;8.40;99.90;;;;;;6267486;22;20011;-59
2022/03/17 06:20:13;;;;;;;8.57;6.50;;;8.30;99.90;;;;;;6267476;22;20055;-58
2022/03/17 06:22:40;;;;;;;10.25;6.30;;;8.30;99.90;;;;;;6239118;22;20120;-59
2022/03/17 06:25:08;;;;;;;10.77;6.43;;;8.30;99.90;;;;;;6267107;22;20020;-57
2022/03/17 06:27:36;;;;;;;13.27;7.68;;;8.30;99.90;;;;;;6238754;22;20023;-56
2022/03/17 06:30:07;;;;;;;12.93;8.05;;;8.30;99.90;;;;;;6266896;22;20050;-60
2022/03/17 06:32:38;;;;;;;13.82;8.07;;;8.30;99.90;;;;;;6267336;22;20047;-57
2022/03/17 06:35:04;;;;;;;10.35;6.57;;;8.30;99.90;;;;;;6266894;22;20038;-57
2022/03/17 06:37:30;;;;;;;10.77;7.03;;;8.30;99.90;;;;;;6237218;22;20442;-57
2022/03/17 06:39:55;;;;;;;13.18;6.45;;;8.30;99.90;;;;;;6264739;22;20033;-59
2022/03/17 06:42:21;;;;;;;11.32;6.65;;;8.30;99.90;;;;;;6264999;22;20023;-57
2022/03/17 06:44:47;;;;;;;14.25;6.25;;;8.30;99.90;;;;;;6212789;22;20081;-57
2022/03/17 06:47:13;;;;;;;18.90;6.45;;;8.30;99.90;;;;;;6237389;22;20024;-57
2022/03/17 06:49:39;;;;;;;11.20;7.05;;;8.20;99.90;;;;;;6262932;22;20023;-57
2022/03/17 06:52:05;;;;;;;16.45;6.22;;;8.20;99.90;;;;;;6266767;22;20018;-57
2022/03/17 06:54:30;;;;;;;16.45;6.30;;;8.20;99.90;;;;;;6266964;22;20027;-57
2022/03/17 06:56:56;;;;;;;13.40;6.35;;;8.30;99.90;;;;;;6266639;22;20034;-57
2022/03/17 06:59:22;;;;;;;8.15;4.18;;;8.20;99.90;;;;;;6266624;22;20378;-56
2022/03/17 07:01:48;;;;;;;8.93;3.92;;;8.20;99.90;;;;;;6266989;22;20555;-57
2022/03/17 07:04:13;;;;;;;6.97;3.85;;;8.10;99.90;;;;;;6265553;22;20460;-57
2022/03/17 07:06:39;;;;;;;8.93;3.83;;;8.10;99.90;;;;;;6266851;22;20024;-57
2022/03/17 07:09:05;;;;;;;8.43;3.65;;;8.10;99.90;;;;;;6213654;22;20020;-58
2022/03/17 07:11:31;;;;;;;7.50;3.85;;;8.00;99.90;;;;;;6266881;22;20098;-58
2022/03/17 07:13:56;;;;;;;15.73;4.53;;;9.30;99.90;;;;;;6266146;22;20015;-57
2022/03/17 07:16:22;;;;;;;9.43;3.20;;;8.00;99.90;;;;;;6239521;22;20023;-64
2022/03/17 07:18:49;;;;;;;8.30;3.20;;;8.00;99.90;;;;;;6261498;22;20083;-57
2022/03/17 07:21:15;;;;;;;7.32;2.88;;;8.00;99.90;;;;;;6263664;22;20055;-57
2022/03/17 07:23:42;;;;;;;12.52;4.95;;;8.00;99.90;;;;;;6264820;22;20020;-61
2022/03/17 07:26:07;;;;;;;5.50;1.90;;;8.10;99.90;;;;;;6264441;22;20462;-64
2022/03/17 07:28:33;;;;;;;4.72;1.77;;;8.10;99.90;;;;;;6264542;22;20039;-56
2022/03/17 07:30:58;;;;;;;6.82;2.28;;;8.10;99.90;;;;;;6265521;22;20096;-57
2022/03/17 07:33:24;;;;;;;9.48;2.85;;;8.60;99.90;;;;;;6265552;22;20020;-57
2022/03/17 07:35:50;;;;;;;6.47;1.90;;;8.30;99.90;;;;;;6239163;22;20027;-58
2022/03/17 07:38:16;;;;;;;14.68;2.95;;;8.40;99.90;;;;;;6265195;22;20027;-57
2022/03/17 07:40:43;;;;;;;4.65;1.63;;;8.40;99.90;;;;;;6238088;22;20028;-57
2022/03/17 07:43:08;;;;;;;6.05;1.83;;;8.40;99.90;;;;;;6264327;22;20077;-57
2022/03/17 07:45:34;;;;;;;4.82;1.73;;;8.50;99.90;;;;;;6262058;22;20071;-65
2022/03/17 07:48:00;;;;;;;8.77;1.38;;;8.40;99.90;;;;;;6235434;22;20381;-57
2022/03/17 07:50:26;;;;;;;6.97;2.50;;;8.60;99.90;;;;;;6264144;22;20053;-56
2022/03/17 07:52:52;;;;;;;3.58;1.00;;;8.30;99.90;;;;;;6264651;22;20015;-61
2022/03/17 07:55:18;;;;;;;6.78;1.60;;;8.30;99.90;;;;;;6264078;22;20354;-57
2022/03/17 07:57:44;;;;;;;5.57;1.88;;;8.30;99.90;;;;;;6264988;22;20108;-62
2022/03/17 08:00:13;;;;;;;6.30;1.73;;;8.30;99.90;;;;;;6237699;22;20091;-65
2022/03/17 08:02:41;;;;;;;6.55;1.77;;;8.30;99.90;;;;;;6265354;22;20446;-60
2022/03/17 08:05:08;;;;;;;7.82;1.88;;;8.20;99.90;;;;;;6261548;22;20028;-57
2022/03/17 08:07:34;;;;;;;8.18;2.38;;;8.20;99.90;;;;;;6264613;22;20048;-57
2022/03/17 08:09:59;;;;;;;6.70;2.20;;;8.20;99.90;;;;;;6265084;22;20368;-57
2022/03/17 08:12:31;;;;;;;9.35;2.25;;;8.70;99.90;;;;;;6265304;22;20022;-57
2022/03/17 08:14:58;;;;;;;5.20;1.98;;;8.10;99.90;;;;;;6263895;22;20461;-56
2022/03/17 08:17:24;;;;;;;10.30;1.48;;;8.10;99.90;;;;;;6266065;22;20027;-57
2022/03/17 08:19:50;;;;;;;4.40;1.58;;;8.20;99.90;;;;;;6265596;22;20015;-57
2022/03/17 08:22:16;;;;;;;7.45;2.25;;;8.20;99.90;;;;;;6265929;22;20124;-57
2022/03/17 08:24:42;;;;;;;6.70;3.78;;;8.30;99.90;;;;;;6264905;22;20329;-57
2022/03/17 08:27:08;;;;;;;11.60;2.60;;;8.30;99.90;;;;;;6265460;22;20057;-57
2022/03/17 08:29:34;;;;;;;8.30;1.80;;;8.40;99.90;;;;;;6265607;22;20483;-57
2022/03/17 08:32:00;;;;;;;16.52;2.35;;;8.30;99.90;;;;;;6265876;22;20023;-57
2022/03/17 08:34:26;;;;;;;5.97;1.65;;;8.40;99.90;;;;;;6265570;22;20057;-57
2022/03/17 08:36:56;;;;;;;7.97;1.77;;;8.30;99.90;;;;;;6265465;22;20016;-58
2022/03/17 08:39:23;;;;;;;12.00;1.90;;;8.40;99.90;;;;;;6261517;22;20023;-57
2022/03/17 08:41:49;;;;;;;7.00;2.55;;;8.40;99.90;;;;;;6264174;22;20024;-57
2022/03/17 08:44:14;;;;;;;8.55;2.05;;;8.40;99.90;;;;;;6265997;22;20461;-57
2022/03/17 08:49:24;;;;;;;16.95;2.40;;;8.40;99.90;;;;;;6265688;22;20046;-57
2022/03/17 08:51:59;;;;;;;12.15;3.17;;;8.50;99.90;;;;;;6266504;22;20019;-56
2022/03/17 08:54:27;;;;;;;10.77;2.70;;;8.60;99.90;;;;;;6266003;22;20342;-57
2022/03/17 08:57:01;;;;;;;9.25;2.30;;;8.60;99.90;;;;;;6266511;22;20572;-56
2022/03/17 08:59:30;;;;;;;10.60;3.00;;;8.60;99.90;;;;;;6266961;22;20027;-57
2022/03/17 09:01:58;;;;;;;13.43;3.00;;;8.50;99.90;;;;;;6268342;22;20016;-57
2022/03/17 09:04:23;;;;;;;14.70;2.78;;;8.60;99.90;;;;;;6267333;22;20659;-57
2022/03/17 09:06:49;;;;;;;9.70;2.20;;;8.60;99.90;;;;;;6267689;22;20019;-59
2022/03/17 09:09:15;;;;;;;12.18;2.30;;;8.40;99.90;;;;;;6240096;22;20023;-58
2022/03/17 09:11:40;;;;;;;7.10;3.10;;;8.40;99.90;;;;;;6268077;22;20015;-57
2022/03/17 09:14:07;;;;;;;10.43;3.03;;;8.40;99.90;;;;;;6268266;22;20055;-59
2022/03/17 09:16:33;;;;;;;9.77;2.75;;;8.30;99.90;;;;;;6267608;22;20381;-71
2022/03/17 09:18:59;;;;;;;6.63;2.28;;;8.20;99.90;;;;;;6267525;22;20022;-57
2022/03/17 09:21:27;;;;;;;12.40;2.17;;;8.30;99.90;;;;;;6267213;22;20090;-56
2022/03/17 09:23:53;;;;;;;9.95;1.75;;;8.40;99.90;;;;;;6267909;22;20016;-57
2022/03/17 09:26:19;;;;;;;7.93;1.73;;;9.00;99.90;;;;;;6266043;22;20024;-61
2022/03/17 09:28:45;;;;;;;11.20;2.40;;;8.70;99.90;;;;;;6266678;22;20069;-61
2022/03/17 09:31:11;;;;;;;8.40;1.75;;;8.90;99.90;;;;;;6240228;22;20510;-60
2022/03/17 09:33:36;;;;;;;6.53;1.75;;;9.20;99.90;;;;;;6267900;22;20051;-62
2022/03/17 09:36:03;;;;;;;11.88;1.88;;;8.90;99.90;;;;;;6240623;22;20067;-70
2022/03/17 09:38:28;;;;;;;11.05;2.42;;;9.00;99.90;;;;;;6267420;22;20054;-63
2022/03/17 09:40:55;;;;;;;16.38;3.38;;;9.00;99.90;;;;;;6267852;22;20020;-68
2022/03/17 09:43:28;;;;;;;8.82;2.55;;;8.90;99.90;;;;;;6239895;22;20023;-59
2022/03/17 09:45:55;;;;;;;11.25;4.03;;;8.80;99.90;;;;;;6267969;22;20020;-61
2022/03/17 09:48:23;;;;;;;11.18;1.60;;;8.70;99.90;;;;;;6267731;22;20027;-59
2022/03/17 09:50:58;;;;;;;14.55;2.03;;;8.60;99.90;;;;;;6268069;22;20026;-57
2022/03/17 09:53:24;;;;;;;6.35;1.88;;;8.60;99.90;;;;;;6266908;22;20354;-56
2022/03/17 09:55:50;;;;;;;8.70;1.65;;;8.70;99.90;;;;;;6267020;22;20026;-57
2022/03/17 09:58:17;;;;;;;6.22;1.52;;;8.70;99.90;;;;;;6239569;22;20369;-56
2022/03/17 10:00:49;;;;;;;8.65;1.98;;;8.90;99.90;;;;;;6267779;22;20066;-58
2022/03/17 10:03:14;;;;;;;9.23;1.77;;;9.10;99.90;;;;;;6266948;22;20466;-57
2022/03/17 10:05:43;;;;;;;8.35;1.58;;;9.20;99.90;;;;;;6267301;22;20027;-58
2022/03/17 10:08:09;;;;;;;6.72;1.73;;;9.40;99.90;;;;;;6267095;22;20012;-57
2022/03/17 10:10:36;;;;;;;9.05;1.88;;;9.40;99.90;;;;;;6239630;22;20453;-59
2022/03/17 10:13:23;;;;;;;6.70;1.40;;;9.60;99.90;;;;;;6240514;22;20069;-57
2022/03/17 10:16:09;;;;;;;6.80;1.48;;;9.80;99.90;;;;;;6268246;22;20011;-58
2022/03/17 10:18:38;;;;;;;10.10;1.92;;;9.70;99.90;;;;;;6264723;22;20061;-57
2022/03/17 10:21:11;;;;;;;9.40;2.88;;;9.90;99.90;;;;;;6213834;22;20035;-57
2022/03/17 10:23:47;;;;;;;13.32;2.55;;;9.80;99.90;;;;;;6267315;22;20019;-57
2022/03/17 10:26:31;;;;;;;11.70;3.50;;;9.90;99.90;;;;;;6262407;22;20030;-57
2022/03/17 10:29:09;;;;;;;9.57;2.05;;;9.80;99.90;;;;;;6266733;22;20034;-56
2022/03/17 10:32:00;;;;;;;7.93;2.13;;;10.00;99.90;;;;;;6265981;22;20020;-56
2022/03/17 10:34:29;;;;;;;10.30;2.33;;;10.30;99.90;;;;;;6265947;22;20362;-57
2022/03/17 10:37:13;;;;;;;6.32;2.15;;;10.70;99.90;;;;;;6262844;22;20367;-57
2022/03/17 10:39:44;;;;;;;9.93;2.07;;;10.80;99.90;;;;;;6238394;22;20030;-56
2022/03/17 10:42:21;;;;;;;8.68;2.03;;;11.00;99.90;;;;;;6265225;22;20028;-56
2022/03/17 10:44:55;;;;;;;7.60;1.92;;;11.10;99.90;;;;;;6266373;22;20015;-57
2022/03/17 10:47:33;;;;;;;8.55;2.08;;;11.40;99.90;;;;;;6266304;22;20373;-57
2022/03/17 10:50:05;;;;;;;8.50;2.10;;;11.30;99.90;;;;;;6266401;22;20058;-57
2022/03/17 10:52:43;;;;;;;9.90;2.33;;;11.90;99.90;;;;;;6265875;22;20105;-61
2022/03/17 10:55:09;;;;;;;11.52;2.80;;;12.20;99.90;;;;;;6264360;22;20456;-57
2022/03/17 10:57:35;;;;;;;6.93;2.40;;;13.00;99.90;;;;;;6239054;22;20024;-56
2022/03/17 11:00:00;;;;;;;8.55;1.77;;;13.20;99.90;;;;;;6265669;22;20591;-59
2022/03/17 11:02:26;;;;;;;11.50;2.17;;;13.30;99.90;;;;;;6265787;22;20019;-62
2022/03/17 11:04:52;;;;;;;9.55;1.67;;;12.90;99.90;;;;;;6265930;22;20043;-57
2022/03/17 11:07:19;;;;;;;6.20;1.88;;;12.70;99.90;;;;;;6265904;22;20461;-57
2022/03/17 11:09:46;;;;;;;11.35;2.38;;;12.90;99.90;;;;;;6266132;22;20468;-57
2022/03/17 11:12:17;;;;;;;13.90;2.10;;;12.90;99.90;;;;;;6238604;22;20030;-57
2022/03/17 11:14:51;;;;;;;4.18;1.50;;;12.50;99.90;;;;;;6266863;22;20066;-57
2022/03/17 11:17:37;;;;;;;16.95;3.33;;;12.70;99.90;;;;;;6266731;22;20299;-57
2022/03/17 11:20:05;;;;;;;9.65;2.30;;;12.30;99.90;;;;;;6266176;22;20051;-60
2022/03/17 11:22:33;;;;;;;9.18;1.80;;;12.10;99.90;;;;;;6238364;22;20358;-57
2022/03/17 11:25:28;;;;;;;11.10;2.85;;;12.10;99.90;;;;;;6265875;22;20051;-59
2022/03/17 11:27:58;;;;;;;;;;;12.60;99.90;;;;;;6265681;22;20063;-57
2022/03/17 11:30:29;;;;;;;8.27;3.10;;;12.90;99.90;;;;;;6265919;22;19973;-61
2022/03/17 11:32:58;;;;;;;9.50;1.60;;;13.10;99.90;;;;;;6261287;22;20089;-60
2022/03/17 11:35:29;;;;;;;8.00;1.90;;;13.00;99.90;;;;;;6262694;22;20105;-57
2022/03/17 11:38:18;;;;;;;9.18;2.58;;;12.80;99.90;;;;;;6259574;22;20055;-59
2022/03/17 11:41:08;;;;;;;9.82;2.05;;;12.20;99.90;;;;;;6261966;22;20434;-57
2022/03/17 11:43:46;;;;;;;8.32;2.45;;;12.30;99.90;;;;;;6261624;22;20063;-57
2022/03/17 11:46:19;;;;;;;8.13;2.22;;;13.00;99.90;;;;;;6261424;22;20520;-57
2022/03/17 11:48:47;;;;;;;6.57;1.98;;;13.80;99.90;;;;;;6261923;22;20016;-57
2022/03/17 11:51:15;;;;;;;7.85;2.13;;;13.40;99.90;;;;;;6262189;22;20067;-59
2022/03/17 11:53:49;;;;;;;12.40;2.90;;;13.40;99.90;;;;;;6262242;22;20030;-57
2022/03/17 11:56:53;;;;;;;13.75;2.72;;;13.50;99.90;;;;;;6261319;22;20011;-60
2022/03/17 11:59:23;;;;;;;11.50;2.20;;;14.40;99.90;;;;;;6198604;22;20034;-57
2022/03/17 12:01:49;;;;;;;8.73;1.60;;;14.60;99.90;;;;;;6262258;22;20066;-57
2022/03/17 12:04:30;;;;;;;8.13;1.98;;;14.80;99.90;;;;;;6261592;22;20085;-57
2022/03/17 12:07:20;;;;;;;5.53;1.98;;;15.20;99.90;;;;;;6261815;22;20016;-57
2022/03/17 12:09:47;;;;;;;8.82;2.47;;;15.60;99.90;;;;;;6262275;22;20016;-63
2022/03/17 12:12:17;;;;;;;6.30;1.67;;;16.10;99.90;;;;;;6261011;22;20023;-61
2022/03/17 12:14:57;;;;;;;3.65;1.70;;;16.60;99.90;;;;;;6262430;22;20020;-60
2022/03/17 12:17:28;;;;;;;4.80;1.58;;;17.30;99.20;;;;;;6234056;22;20089;-65
2022/03/17 12:20:02;;;;;;;7.68;2.22;;;18.30;97.70;;;;;;6261812;22;20083;-58
2022/03/17 12:22:31;;;;;;;5.05;1.80;;;19.40;96.20;;;;;;6259919;22;20092;-66
2022/03/17 12:25:03;;;;;;;4.75;1.40;;;18.90;96.00;;;;;;6261544;22;20087;-64
2022/03/17 12:27:35;;;;;;;5.55;2.17;;;18.90;95.00;;;;;;6260768;22;20073;-59
2022/03/17 12:30:08;;;;;;;10.48;1.85;;;20.20;95.60;;;;;;6262198;22;20024;-57
2022/03/17 12:32:39;;;;;;;8.85;1.45;;;21.30;93.90;;;;;;6258945;22;20023;-63
2022/03/17 12:35:07;;;;;;;7.32;1.48;;;20.90;94.10;;;;;;6231851;22;20314;-59
2022/03/17 12:37:34;;;;;;;4.00;1.85;;;20.10;92.40;;;;;;6262145;22;20454;-58
2022/03/17 12:40:04;;;;;;;9.18;1.92;;;19.30;92.90;;;;;;6264637;22;20027;-59
2022/03/17 12:42:31;;;;;;;4.65;1.23;;;19.10;92.70;;;;;;6264344;22;20059;-58
2022/03/17 12:45:07;;;;;;;5.28;1.70;;;19.30;92.70;;;;;;6264004;22;20351;-58
2022/03/17 12:47:37;;;;;;;6.10;1.73;;;20.00;92.50;;;;;;6264369;22;20381;-57
2022/03/17 12:50:12;;;;;;;5.28;1.77;;;19.50;92.50;;;;;;6264202;22;20462;-57
2022/03/17 12:52:40;;;;;;;7.15;1.58;;;20.50;92.40;;;;;;6264401;22;20020;-58
2022/03/17 12:55:11;;;;;;;4.07;1.40;;;19.90;92.50;;;;;;6264796;22;20050;-57
2022/03/17 12:57:38;;;;;;;5.35;1.80;;;20.80;92.70;;;;;;6263989;22;20074;-57
2022/03/17 13:00:05;;;;;;;5.47;2.00;;;20.60;91.80;;;;;;6264963;22;20030;-57